Time;durP1;ratioP1;P1;durP2;ratioP2;P2;SDS_P1;SDS_P2;PMS_P1;PMS_P2;Temp;Humidity;BMP_temperature;BMP_pressure;BME280_temperature;BME280_humidity;BME280_pressure;Samples;Min_cycle;Max_cycle;Signal;HPM_P1;HPM_P2
2021/03/17 00:02:10;;;;;;;3.73;2.57;;;;;;;2.44;100.00;98746.19;1815275;79;20885;-73
2021/03/17 00:04:57;;;;;;;5.93;3.00;;;;;;;2.42;100.00;98740.14;1815393;79;20988;-73
2021/03/17 00:07:44;;;;;;;5.37;2.70;;;;;;;2.41;100.00;98734.98;1815398;79;20968;-74
2021/03/17 00:10:35;;;;;;;4.33;3.33;;;;;;;2.40;100.00;98735.96;1815303;78;21592;-73
2021/03/17 00:13:24;;;;;;;5.30;2.63;;;;;;;2.37;100.00;98736.25;1815588;79;21545;-73
2021/03/17 00:16:12;;;;;;;2.40;2.20;;;;;;;2.34;100.00;98736.08;1815470;79;20924;-73
2021/03/17 00:18:59;;;;;;;6.40;3.53;;;;;;;2.34;100.00;98733.88;1815358;79;21506;-75
2021/03/17 00:21:45;;;;;;;8.90;3.30;;;;;;;2.32;100.00;98734.05;1821152;78;20987;-74
2021/03/17 00:24:32;;;;;;;10.37;4.20;;;;;;;2.30;100.00;98732.51;1835931;78;21128;-74
2021/03/17 00:27:18;;;;;;;3.43;2.83;;;;;;;2.28;100.00;98723.32;1835918;78;20975;-74
2021/03/17 00:30:08;;;;;;;3.07;2.57;;;;;;;2.28;100.00;98732.66;1836060;78;21541;-72
2021/03/17 00:32:55;;;;;;;4.63;2.60;;;;;;;2.28;100.00;98735.33;1835876;78;21577;-73
2021/03/17 00:35:44;;;;;;;6.40;3.40;;;;;;;2.28;100.00;98729.98;1835476;78;20998;-72
2021/03/17 00:38:33;;;;;;;4.07;3.20;;;;;;;2.28;100.00;98731.33;1835441;78;21824;-73
2021/03/17 00:41:19;;;;;;;2.73;1.90;;;;;;;2.27;100.00;98729.16;1835297;78;20943;-74
2021/03/17 00:44:06;;;;;;;5.37;2.93;;;;;;;2.28;100.00;98728.66;1809105;78;20995;-72
2021/03/17 00:46:53;;;;;;;9.33;4.57;;;;;;;2.27;100.00;98723.83;1802576;79;21161;-72
2021/03/17 00:49:23;;;;;;;4.80;2.23;;;;;;;2.28;100.00;98721.98;1802396;77;21019;-73
2021/03/17 00:51:53;;;;;;;4.93;2.97;;;;;;;2.28;100.00;98723.32;1821572;77;21548;-73
2021/03/17 00:54:39;;;;;;;2.57;2.03;;;;;;;2.28;100.00;98717.98;1835499;78;20936;-73
2021/03/17 00:57:25;;;;;;;4.30;2.53;;;;;;;2.28;100.00;98716.18;1835426;78;20944;-73
2021/03/17 00:59:53;;;;;;;6.43;3.37;;;;;;;2.30;100.00;98719.17;1835482;78;20979;-73
2021/03/17 01:02:21;;;;;;;4.60;2.67;;;;;;;2.31;100.00;98714.20;1835513;78;21022;-73
2021/03/17 01:04:49;;;;;;;4.20;2.47;;;;;;;2.32;100.00;98715.86;1835517;77;21344;-74
2021/03/17 01:07:17;;;;;;;3.43;2.10;;;;;;;2.35;100.00;98715.56;1835448;78;20961;-72
2021/03/17 01:09:46;;;;;;;2.70;2.30;;;;;;;2.35;100.00;98709.72;1835387;78;20948;-73
2021/03/17 01:12:16;;;;;;;4.80;2.50;;;;;;;2.36;100.00;98712.75;1835328;78;20983;-73
2021/03/17 01:14:44;;;;;;;2.70;2.47;;;;;;;2.37;100.00;98705.07;1835428;78;21007;-73
2021/03/17 01:17:12;;;;;;;6.23;2.83;;;;;;;2.39;100.00;98704.92;1835451;78;22214;-74
2021/03/17 01:19:40;;;;;;;2.50;2.33;;;;;;;2.39;100.00;98703.11;1835384;78;20960;-73
2021/03/17 01:22:09;;;;;;;3.53;2.67;;;;;;;2.40;100.00;98703.44;1828909;78;20893;-73
2021/03/17 01:24:37;;;;;;;3.67;2.27;;;;;;;2.42;100.00;98696.63;1814766;79;20989;-73
2021/03/17 01:27:07;;;;;;;4.77;2.47;;;;;;;2.43;100.00;98695.64;1814976;79;21008;-73
2021/03/17 01:29:35;;;;;;;3.40;2.50;;;;;;;2.43;100.00;98697.81;1814624;79;22429;-74
2021/03/17 01:32:04;;;;;;;2.17;1.70;;;;;;;2.43;100.00;98693.80;1814842;78;21142;-74
2021/03/17 01:34:32;;;;;;;4.77;2.77;;;;;;;2.44;100.00;98691.97;1814723;79;21226;-73
2021/03/17 01:37:00;;;;;;;4.23;2.93;;;;;;;2.45;100.00;98689.66;1829655;78;20914;-72
2021/03/17 01:39:29;;;;;;;5.97;2.47;;;;;;;2.45;100.00;98693.16;1834451;78;20949;-73
2021/03/17 01:41:56;;;;;;;2.70;1.97;;;;;;;2.44;100.00;98690.16;1834455;77;21194;-73
2021/03/17 01:44:24;;;;;;;2.23;2.03;;;;;;;2.45;100.00;98697.66;1816027;77;21020;-73
2021/03/17 01:46:53;;;;;;;3.47;2.33;;;;;;;2.46;100.00;98700.19;1814757;79;20945;-72
2021/03/17 01:49:21;;;;;;;1.90;1.80;;;;;;;2.47;100.00;98691.67;1800152;79;21020;-74
2021/03/17 01:51:50;;;;;;;5.40;2.70;;;;;;;2.47;100.00;98696.50;1796607;79;21035;-74
2021/03/17 01:54:18;;;;;;;3.80;2.87;;;;;;;2.49;100.00;98692.86;1766088;79;21199;-74
2021/03/17 01:56:46;;;;;;;4.50;2.73;;;;;;;2.48;100.00;98696.03;1796439;79;20971;-74
2021/03/17 01:59:14;;;;;;;8.80;3.00;;;;;;;2.49;100.00;98696.36;1796668;79;20969;-74
2021/03/17 02:01:43;;;;;;;4.03;2.23;;;;;;;2.50;100.00;98699.38;1796609;79;20972;-74
2021/03/17 02:04:11;;;;;;;3.57;2.43;;;;;;;2.51;100.00;98701.55;1796667;79;21588;-74
2021/03/17 02:06:39;;;;;;;3.97;2.90;;;;;;;2.50;100.00;98703.38;1796713;79;22122;-74
2021/03/17 02:09:07;;;;;;;4.90;2.37;;;;;;;2.49;100.00;98688.86;1796396;79;21003;-74
2021/03/17 02:11:39;;;;;;;2.77;2.50;;;;;;;2.50;100.00;98688.70;1796468;79;21371;-74
2021/03/17 02:14:26;;;;;;;4.90;2.63;;;;;;;2.51;100.00;98690.37;1796464;79;21023;-73
2021/03/17 02:17:08;;;;;;;3.97;2.20;;;;;;;2.52;100.00;98689.39;1796579;79;21007;-72
2021/03/17 02:20:06;;;;;;;6.03;2.27;;;;;;;2.54;100.00;98688.73;1796474;79;22373;-73
2021/03/17 02:23:05;;;;;;;2.67;1.77;;;;;;;2.54;100.00;98690.06;1793500;77;21118;-73
2021/03/17 02:25:55;;;;;;;3.60;2.37;;;;;;;2.54;100.00;98691.41;1788462;79;20988;-73
2021/03/17 02:28:40;;;;;;;1.93;1.80;;;;;;;2.53;100.00;98687.55;1817820;79;20968;-72
2021/03/17 02:31:40;;;;;;;3.10;2.17;;;;;;;2.51;100.00;98690.87;1817988;79;21561;-73
2021/03/17 02:34:11;;;;;;;1.57;1.30;;;;;;;2.52;100.00;98691.23;1817850;79;22026;-73
2021/03/17 02:36:59;;;;;;;1.70;1.60;;;;;;;2.52;100.00;98694.73;1817848;79;20921;-72
2021/03/17 02:39:46;;;;;;;4.53;2.40;;;;;;;2.52;100.00;98687.23;1817881;79;21747;-73
2021/03/17 02:42:35;;;;;;;2.87;2.33;;;;;;;2.54;100.00;98689.24;1734827;82;21020;-73
2021/03/17 02:45:12;;;;;;;5.70;2.97;;;;;;;2.54;100.00;98695.41;1721200;83;21072;-73
2021/03/17 02:47:53;;;;;;;2.07;1.87;;;;;;;2.55;100.00;98697.57;1722627;82;21221;-72
2021/03/17 02:50:22;;;;;;;4.43;2.03;;;;;;;2.55;100.00;98692.23;1692359;84;21082;-73
2021/03/17 02:52:55;;;;;;;3.20;2.80;;;;;;;2.55;100.00;98686.42;1671821;84;21365;-73
2021/03/17 02:55:26;;;;;;;6.40;2.35;;;;;;;2.55;100.00;98688.23;1695229;84;21035;-73
2021/03/17 02:57:54;;;;;;;4.43;2.30;;;;;;;2.55;100.00;98692.23;1695213;84;21055;-73
2021/03/17 03:00:23;;;;;;;3.57;1.97;;;;;;;2.54;100.00;98687.40;1692069;84;22179;-73
2021/03/17 03:02:51;;;;;;;2.30;2.03;;;;;;;2.55;100.00;98680.22;1692051;84;21681;-72
2021/03/17 03:05:19;;;;;;;2.00;1.80;;;;;;;2.56;100.00;98687.25;1691978;84;20996;-74
2021/03/17 03:07:49;;;;;;;3.80;2.40;;;;;;;2.56;100.00;98689.41;1692111;84;21082;-73
2021/03/17 03:10:19;;;;;;;4.93;2.23;;;;;;;2.56;100.00;98685.41;1692128;84;21160;-72
2021/03/17 03:12:48;;;;;;;3.10;2.07;;;;;;;2.55;100.00;98687.76;1692084;84;21111;-72
2021/03/17 03:15:18;;;;;;;1.93;1.73;;;;;;;2.56;100.00;98689.92;1692033;83;21019;-74
2021/03/17 03:17:47;;;;;;;3.27;1.80;;;;;;;2.55;100.00;98694.43;1692159;84;20995;-73
2021/03/17 03:20:20;;;;;;;2.30;1.57;;;;;;;2.57;100.00;98696.44;1692040;84;21700;-73
2021/03/17 03:22:49;;;;;;;4.33;2.37;;;;;;;2.57;100.00;98700.45;1700342;83;21540;-72
2021/03/17 03:25:17;;;;;;;4.27;2.30;;;;;;;2.61;100.00;98698.31;1727147;83;21458;-74
2021/03/17 03:27:46;;;;;;;5.30;3.37;;;;;;;2.61;100.00;98694.30;1693203;83;21811;-74
2021/03/17 03:30:18;;;;;;;13.40;5.80;;;;;;;2.61;100.00;98699.14;1727148;83;21189;-73
2021/03/17 03:32:46;;;;;;;11.90;6.47;;;;;;;2.62;100.00;98699.97;1716815;83;21098;-73
2021/03/17 03:35:16;;;;;;;10.97;5.00;;;;;;;2.61;100.00;98695.14;1727305;82;21584;-73
2021/03/17 03:37:43;;;;;;;12.00;3.57;;;;;;;2.61;100.00;98696.97;1720365;82;21787;-73
2021/03/17 03:40:17;;;;;;;6.13;3.33;;;;;;;2.61;100.00;98690.30;1769242;81;21507;-73
2021/03/17 03:42:46;;;;;;;6.43;2.73;;;;;;;2.62;100.00;98690.16;1767032;81;20965;-73
2021/03/17 03:45:17;;;;;;;3.47;2.50;;;;;;;2.62;100.00;98688.82;1760878;81;21052;-72
2021/03/17 03:47:47;;;;;;;4.27;2.60;;;;;;;2.62;100.00;98686.62;1764914;79;21000;-73
2021/03/17 03:50:18;;;;;;;7.30;3.67;;;;;;;2.61;100.00;98687.12;1771018;81;21328;-72
2021/03/17 03:53:15;;;;;;;5.20;2.50;;;;;;;2.61;100.00;98689.80;1741677;81;21004;-72
2021/03/17 03:56:08;;;;;;;5.40;2.60;;;;;;;2.61;100.00;98680.45;1771116;81;21078;-73
2021/03/17 03:58:59;;;;;;;3.00;2.50;;;;;;;2.60;100.00;98691.28;1771131;81;21718;-73
2021/03/17 04:01:47;;;;;;;5.30;3.00;;;;;;;2.60;100.00;98687.28;1771080;81;20984;-74
2021/03/17 04:04:17;;;;;;;3.50;2.07;;;;;;;2.61;100.00;98687.12;1771103;81;22294;-73
2021/03/17 04:06:50;;;;;;;4.23;2.07;;;;;;;2.62;100.00;98688.82;1741527;81;21042;-74
2021/03/17 04:09:36;;;;;;;3.50;2.37;;;;;;;2.63;100.00;98684.31;1771138;81;20986;-72
2021/03/17 04:12:12;;;;;;;3.37;1.77;;;;;;;2.64;100.00;98682.83;1851966;76;27016;-74
2021/03/17 04:14:42;;;;;;;3.27;2.00;;;;;;;2.60;100.00;98691.28;1782764;80;21002;-74
2021/03/17 04:17:29;;;;;;;3.70;2.13;;;;;;;2.62;100.00;98694.63;1822904;77;21322;-73
2021/03/17 04:20:03;;;;;;;5.20;3.03;;;;;;;2.60;100.00;98689.48;1855199;77;20996;-74
2021/03/17 04:22:31;;;;;;;2.40;1.65;;;;;;;2.60;100.00;98688.14;1741388;82;21042;-75
2021/03/17 04:24:59;;;;;;;2.80;2.17;;;;;;;2.61;100.00;98700.98;1741472;82;21080;-73
2021/03/17 04:27:27;;;;;;;2.00;1.90;;;;;;;2.61;100.00;98690.30;1717080;82;21017;-72
2021/03/17 04:29:55;;;;;;;2.20;1.40;;;;;;;2.63;100.00;98692.31;1716943;82;21925;-73
2021/03/17 04:32:23;;;;;;;2.33;1.90;;;;;;;2.61;100.00;98687.12;1741530;82;21033;-73
2021/03/17 04:34:51;;;;;;;3.10;2.50;;;;;;;2.64;100.00;98688.67;1717053;82;21059;-73
2021/03/17 04:37:19;;;;;;;6.07;3.00;;;;;;;2.65;100.00;98687.16;1741478;82;21575;-72
2021/03/17 04:39:50;;;;;;;2.90;2.17;;;;;;;2.66;100.00;98689.35;1741468;82;21086;-75
2021/03/17 04:42:18;;;;;;;1.83;1.30;;;;;;;2.66;100.00;98692.02;1716153;82;21323;-75
2021/03/17 04:44:46;;;;;;;2.33;1.40;;;;;;;2.68;100.00;98682.53;1707750;84;21139;-74
2021/03/17 04:47:16;;;;;;;2.90;1.63;;;;;;;2.69;100.00;98685.02;1719613;83;21639;-74
2021/03/17 04:49:45;;;;;;;2.87;1.70;;;;;;;2.70;100.00;98688.04;1726449;82;21681;-74
2021/03/17 04:52:15;;;;;;;4.63;2.63;;;;;;;2.71;100.00;98692.88;1706813;82;20972;-74
2021/03/17 04:54:53;;;;;;;2.27;1.93;;;;;;;2.76;100.00;98691.45;1845232;76;26827;-73
2021/03/17 04:57:24;;;;;;;2.30;2.07;;;;;;;2.73;100.00;98695.75;1815320;79;21023;-74
2021/03/17 04:59:52;;;;;;;2.53;1.83;;;;;;;2.74;100.00;98693.91;1767705;81;22541;-73
2021/03/17 05:02:24;;;;;;;1.80;1.60;;;;;;;2.74;100.00;98692.06;1753904;81;21118;-73
2021/03/17 05:04:54;;;;;;;2.87;2.08;;;;;;;2.76;100.00;98693.25;1760014;81;21636;-73
2021/03/17 05:07:22;;;;;;;3.47;2.23;;;;;;;2.78;100.00;98698.80;1759789;80;21064;-73
2021/03/17 05:09:50;;;;;;;3.23;1.77;;;;;;;2.80;100.00;98699.98;1711095;81;21090;-74
2021/03/17 05:12:18;;;;;;;4.43;3.17;;;;;;;2.79;100.00;98692.95;1759893;81;22693;-74
2021/03/17 05:14:47;;;;;;;6.23;1.60;;;;;;;2.82;100.00;98702.00;1759724;81;21212;-73
2021/03/17 05:17:17;;;;;;;3.10;2.57;;;;;;;2.83;100.00;98696.51;1657004;84;21579;-73
2021/03/17 05:19:45;;;;;;;2.73;2.27;;;;;;;2.85;100.00;98693.66;1733670;82;21068;-74
2021/03/17 05:22:13;;;;;;;2.13;1.93;;;;;;;2.88;100.00;98695.20;1733607;82;21600;-72
2021/03/17 05:24:40;;;;;;;6.37;3.27;;;;;;;2.90;100.00;98698.55;1733544;82;22775;-74
2021/03/17 05:27:15;;;;;;;10.47;4.67;;;;;;;2.92;100.00;98701.89;1733432;82;21044;-75
2021/03/17 05:29:43;;;;;;;2.47;2.13;;;;;;;2.92;100.00;98698.75;1733585;82;20985;-74
2021/03/17 05:32:12;;;;;;;3.93;2.07;;;;;;;2.95;100.00;98694.91;1732568;82;21550;-74
2021/03/17 05:34:56;;;;;;;2.07;1.87;;;;;;;2.97;100.00;98703.61;1732059;82;21001;-74
2021/03/17 05:37:25;;;;;;;4.17;2.33;;;;;;;3.00;100.00;98700.63;1731498;82;21849;-73
2021/03/17 05:39:54;;;;;;;3.70;2.37;;;;;;;3.04;100.00;98695.31;1731945;82;21709;-73
2021/03/17 05:42:22;;;;;;;3.07;1.97;;;;;;;3.08;100.00;98703.84;1732132;82;21048;-74
2021/03/17 05:44:52;;;;;;;4.93;2.37;;;;;;;3.11;100.00;98695.53;1733579;82;21036;-74
2021/03/17 05:47:22;;;;;;;3.03;1.90;;;;;;;3.14;100.00;98698.73;1733589;82;20997;-73
2021/03/17 05:49:50;;;;;;;2.67;2.00;;;;;;;3.18;100.00;98702.75;1704243;84;21213;-73
2021/03/17 05:52:19;;;;;;;2.97;1.97;;;;;;;3.23;100.00;98707.64;1704037;84;21743;-74
2021/03/17 05:54:49;;;;;;;3.33;2.77;;;;;;;3.28;100.00;98712.52;1695042;83;21049;-74
2021/03/17 05:57:16;;;;;;;5.10;2.70;;;;;;;3.33;100.00;98711.52;1724638;82;21012;-73
2021/03/17 05:59:44;;;;;;;3.97;1.90;;;;;;;3.34;100.00;98718.05;1735652;82;20981;-73
2021/03/17 06:02:12;;;;;;;2.93;1.97;;;;;;;3.37;100.00;98714.25;1735674;82;21285;-75
2021/03/17 06:04:40;;;;;;;3.37;2.37;;;;;;;3.42;100.00;98709.27;1685399;82;21056;-73
2021/03/17 06:07:19;;;;;;;3.37;1.90;;;;;;;3.44;100.00;98719.80;1735053;82;21012;-74
2021/03/17 06:09:47;;;;;;;2.47;1.90;;;;;;;3.45;100.00;98714.78;1735935;81;20930;-76
2021/03/17 06:12:15;;;;;;;2.80;2.00;;;;;;;3.45;100.00;98714.78;1735508;82;21084;-75
2021/03/17 06:14:43;;;;;;;2.27;2.07;;;;;;;3.48;100.00;98717.98;1708352;82;22340;-75
2021/03/17 06:17:16;;;;;;;1.60;1.30;;;;;;;3.50;100.00;98721.83;1735215;82;21171;-76
2021/03/17 06:19:49;;;;;;;2.42;2.22;;;;;;;3.53;100.00;98717.01;1709330;82;20993;-72
2021/03/17 06:22:18;;;;;;;4.97;3.10;;;;;;;3.57;100.00;98721.53;1735347;82;20946;-75
2021/03/17 06:24:45;;;;;;;5.60;2.90;;;;;;;3.58;100.00;98720.05;1735350;82;21029;-74
2021/03/17 06:27:13;;;;;;;3.80;2.27;;;;;;;3.61;100.00;98720.21;1735317;82;22552;-75
2021/03/17 06:29:41;;;;;;;3.47;2.30;;;;;;;3.63;100.00;98720.06;1735054;82;20956;-76
2021/03/17 06:32:09;;;;;;;4.57;2.67;;;;;;;3.65;100.00;98725.60;1735192;82;21017;-76
2021/03/17 06:34:48;;;;;;;5.50;1.80;;;;;;;3.67;100.00;98728.95;1736759;82;20968;-74
2021/03/17 06:37:23;;;;;;;4.00;3.03;;;;;;;3.70;100.00;98726.44;1737241;82;20905;-75
2021/03/17 06:39:51;;;;;;;4.23;2.93;;;;;;;3.75;100.00;98723.66;1682648;82;21225;-76
2021/03/17 06:42:19;;;;;;;4.57;2.80;;;;;;;3.77;100.00;98723.47;1737084;81;21057;-74
2021/03/17 06:44:57;;;;;;;4.30;2.73;;;;;;;3.79;100.00;98725.00;1690429;81;21005;-73
2021/03/17 06:47:25;;;;;;;3.33;2.50;;;;;;;3.83;100.00;98730.04;1761439;81;21135;-75
2021/03/17 06:49:53;;;;;;;3.80;2.50;;;;;;;3.84;100.00;98731.70;1734901;82;21000;-74
2021/03/17 06:52:37;;;;;;;3.27;2.03;;;;;;;3.87;100.00;98726.03;1734883;82;21197;-74
2021/03/17 06:55:17;;;;;;;3.47;3.08;;;;;;;3.90;100.00;98727.06;1735153;82;21061;-74
2021/03/17 06:57:49;;;;;;;5.03;2.50;;;;;;;3.93;100.00;98730.73;1735286;82;21012;-75
2021/03/17 07:00:33;;;;;;;4.33;2.87;;;;;;;3.93;100.00;98730.73;1668335;84;21599;-75
2021/03/17 07:03:09;;;;;;;2.93;2.47;;;;;;;3.95;100.00;98730.92;1625139;86;21081;-76
2021/03/17 07:05:42;;;;;;;;;;;;;;;3.96;100.00;98724.56;1627397;86;21370;-73
2021/03/17 07:08:29;;;;;;;11.67;6.17;;;;;;;4.02;100.00;98726.25;1845373;75;26435;-73
2021/03/17 07:11:02;;;;;;;8.43;4.30;;;;;;;3.98;100.00;98729.27;1815491;79;21327;-76
2021/03/17 07:13:30;;;;;;;11.40;4.73;;;;;;;3.99;100.00;98737.62;1815693;79;21180;-74
2021/03/17 07:15:59;;;;;;;7.13;3.80;;;;;;;3.96;100.00;98733.92;1815488;79;20991;-73
2021/03/17 07:18:30;;;;;;;6.53;3.17;;;;;;;3.95;100.00;98736.78;1815130;78;20925;-78
2021/03/17 07:21:05;;;;;;;4.70;2.83;;;;;;;3.93;100.00;98729.39;1815581;79;20928;-73
2021/03/17 07:23:41;;;;;;;3.30;2.63;;;;;;;3.95;100.00;98733.59;1815521;79;20980;-73
2021/03/17 07:26:29;;;;;;;10.40;4.17;;;;;;;3.96;100.00;98728.57;1810726;79;21550;-74
2021/03/17 07:29:05;;;;;;;7.30;3.80;;;;;;;4.00;100.00;98731.76;1808732;79;20944;-75
2021/03/17 07:31:43;;;;;;;7.63;4.10;;;;;;;4.07;100.00;98729.28;1769951;80;21061;-75
2021/03/17 07:34:25;;;;;;;8.13;3.80;;;;;;;4.10;100.00;98735.15;1767170;80;21222;-76
2021/03/17 07:36:58;;;;;;;;;;;;;;;4.14;100.00;98735.66;1676028;84;21233;-76
2021/03/17 07:39:36;;;;;;;7.53;4.47;;;;;;;4.19;100.00;98730.16;1722953;82;21273;-75
2021/03/17 07:42:06;;;;;;;9.50;4.83;;;;;;;4.26;100.00;98729.52;1706868;82;21190;-75
2021/03/17 07:44:38;;;;;;;7.63;4.20;;;;;;;4.33;100.00;98733.22;1683459;84;21514;-76
2021/03/17 07:47:09;;;;;;;4.83;3.37;;;;;;;4.40;100.00;98732.91;1753435;80;21016;-76
2021/03/17 07:49:42;;;;;;;7.13;4.27;;;;;;;4.44;100.00;98731.56;1762292;80;20950;-74
2021/03/17 07:52:18;;;;;;;6.80;3.77;;;;;;;4.47;100.00;98733.92;1694680;84;21214;-76
2021/03/17 07:54:53;;;;;;;10.30;4.70;;;;;;;4.52;100.00;98727.58;1827477;76;26655;-77
2021/03/17 07:57:26;;;;;;;10.50;4.77;;;;;;;4.52;100.00;98732.94;1748204;82;21010;-75
2021/03/17 07:59:55;;;;;;;13.50;6.00;;;;;;;4.58;100.00;98730.61;1766264;80;21185;-79
2021/03/17 08:02:24;;;;;;;9.80;4.63;;;;;;;4.63;100.00;98727.77;1737471;82;20941;-78
2021/03/17 08:04:56;;;;;;;11.90;4.33;;;;;;;4.64;100.00;98727.25;1653091;86;21012;-74
2021/03/17 08:07:24;;;;;;;10.30;4.10;;;;;;;4.68;100.00;98717.40;1639148;85;21665;-75
2021/03/17 08:09:53;;;;;;;8.23;3.67;;;;;;;4.72;100.00;98721.41;1659550;85;21053;-77
2021/03/17 08:12:21;;;;;;;8.80;3.77;;;;;;;4.77;100.00;98719.58;1651384;86;22042;-77
2021/03/17 08:14:48;;;;;;;8.23;4.23;;;;;;;4.83;100.00;98720.24;1625694;86;21154;-75
2021/03/17 08:17:35;;;;;;;8.63;4.23;;;;;;;4.89;100.00;98718.25;1654599;84;21040;-73
2021/03/17 08:20:22;;;;;;;10.37;4.57;;;;;;;4.95;100.00;98718.91;1672963;85;21138;-73
2021/03/17 08:22:52;;;;;;;9.03;4.70;;;;;;;5.05;100.00;98725.97;1709491;81;21020;-75
2021/03/17 08:25:43;;;;;;;8.90;4.00;;;;;;;5.11;100.00;98725.28;1768852;79;21550;-74
2021/03/17 08:28:27;;;;;;;11.90;4.80;;;;;;;5.18;100.00;98733.48;1735471;82;20962;-71
2021/03/17 08:30:56;;;;;;;11.43;4.37;;;;;;;5.21;100.00;98735.33;1772117;79;21043;-71
2021/03/17 08:33:40;;;;;;;8.70;4.47;;;;;;;5.22;100.00;98732.14;1760079;79;20986;-71
2021/03/17 08:36:14;;;;;;;15.60;6.13;;;;;;;5.25;100.00;98736.66;1689464;84;21127;-71
2021/03/17 08:38:53;;;;;;;14.20;6.87;;;;;;;5.28;100.00;98740.34;1707400;83;22389;-70
2021/03/17 08:41:46;;;;;;;10.57;4.70;;;;;;;5.30;100.00;98734.31;1705398;83;21656;-70
2021/03/17 08:44:19;;;;;;;14.60;5.83;;;;;;;5.29;100.00;98735.33;1708868;83;21065;-71
2021/03/17 08:46:48;;;;;;;11.03;4.70;;;;;;;5.29;100.00;98737.16;1707246;83;21037;-70
2021/03/17 08:49:35;;;;;;;14.27;4.87;;;;;;;5.28;100.00;98731.48;1676217;84;21679;-69
2021/03/17 08:52:26;;;;;;;13.97;6.40;;;;;;;5.33;100.00;98734.48;1860482;76;26528;-72
2021/03/17 08:54:58;;;;;;;11.70;5.27;;;;;;;5.34;100.00;98728.10;1827252;76;21535;-70
2021/03/17 08:57:53;;;;;;;11.83;5.10;;;;;;;5.38;100.00;98727.26;1771727;78;21206;-70
2021/03/17 09:00:48;;;;;;;14.97;5.10;;;;;;;5.41;100.00;98733.63;1776043;78;21070;-70
2021/03/17 09:03:35;;;;;;;12.30;5.03;;;;;;;5.46;100.00;98739.32;1780251;78;21056;-73
2021/03/17 09:06:18;;;;;;;22.23;7.27;;;;;;;5.52;100.00;98742.65;1746342;82;21824;-71
2021/03/17 09:09:01;;;;;;;16.33;6.13;;;;;;;5.63;100.00;98736.09;1745943;82;21027;-70
2021/03/17 09:11:35;;;;;;;16.83;6.80;;;;;;;5.74;100.00;98734.41;1746301;82;22563;-71
2021/03/17 09:14:07;;;;;;;10.00;4.80;;;;;;;5.91;100.00;98736.52;1746188;82;21122;-71
2021/03/17 09:16:41;;;;;;;12.70;6.13;;;;;;;6.09;100.00;98733.62;1746468;81;21070;-72
2021/03/17 09:19:15;;;;;;;14.47;6.47;;;;;;;6.23;100.00;98736.08;1746028;82;21580;-73
2021/03/17 09:21:45;;;;;;;14.98;6.45;;;;;;;6.36;100.00;98745.77;1746520;82;21657;-70
2021/03/17 09:24:31;;;;;;;13.83;5.97;;;;;;;6.43;100.00;98741.88;1750109;80;22208;-69
2021/03/17 09:27:03;;;;;;;17.50;5.90;;;;;;;6.46;100.00;98746.87;1746328;82;21090;-72
2021/03/17 09:29:41;;;;;;;14.97;5.40;;;;;;;6.56;100.00;98741.29;1844823;76;26303;-70
2021/03/17 09:32:11;;;;;;;15.60;6.03;;;;;;;6.60;100.00;98744.77;1815214;79;20964;-74
2021/03/17 09:34:39;;;;;;;17.93;7.63;;;;;;;6.76;100.00;98747.03;1817804;78;21197;-72
2021/03/17 09:37:09;;;;;;;17.33;8.63;;;;;;;6.92;100.00;98746.91;1825223;78;20989;-69
2021/03/17 09:39:39;;;;;;;14.70;6.47;;;;;;;7.07;100.00;98744.30;1825332;77;20997;-69
2021/03/17 09:42:14;;;;;;;10.53;5.27;;;;;;;7.20;100.00;98747.19;1825330;77;20989;-70
2021/03/17 09:44:42;;;;;;;11.33;5.03;;;;;;;7.32;100.00;98752.98;1789789;79;21545;-71
2021/03/17 09:47:10;;;;;;;11.50;5.33;;;;;;;7.42;100.00;98758.13;1806382;78;21186;-71
2021/03/17 09:49:38;;;;;;;9.80;3.97;;;;;;;7.45;100.00;98748.32;1796971;78;21095;-69
2021/03/17 09:52:06;;;;;;;8.20;4.30;;;;;;;7.53;100.00;98742.05;1806929;77;20992;-75
2021/03/17 09:54:35;;;;;;;10.13;4.93;;;;;;;7.66;100.00;98736.85;1790024;79;21138;-77
2021/03/17 09:57:07;;;;;;;9.47;4.20;;;;;;;7.78;100.00;98730.52;1733620;82;21041;-75
2021/03/17 09:59:39;;;;;;;10.00;4.57;;;;;;;7.87;100.00;98736.64;1750417;81;21195;-73
2021/03/17 10:02:19;;;;;;;8.80;4.67;;;;;;;7.95;100.00;98723.07;1761230;80;21061;-73
2021/03/17 10:04:50;;;;;;;9.30;4.10;;;;;;;8.04;100.00;98729.20;1764183;81;21005;-74
2021/03/17 10:07:28;;;;;;;5.83;3.60;;;;;;;8.07;100.00;98731.00;1757750;81;21049;-76
2021/03/17 10:09:57;;;;;;;9.93;4.47;;;;;;;8.13;100.00;98724.06;1735710;82;21025;-72
2021/03/17 10:12:29;;;;;;;8.17;3.77;;;;;;;8.20;100.00;98727.67;1747995;81;21311;-71
2021/03/17 10:15:09;;;;;;;11.23;4.40;;;;;;;8.24;100.00;98725.44;1688768;83;21608;-71
2021/03/17 10:17:44;;;;;;;5.90;3.50;;;;;;;8.33;100.00;98717.56;1848344;76;22573;-71
2021/03/17 10:20:22;;;;;;;6.00;3.43;;;;;;;8.37;100.00;98716.16;1818441;79;20932;-73
2021/03/17 10:22:51;;;;;;;4.60;2.93;;;;;;;8.45;100.00;98714.73;1815501;79;21649;-70
2021/03/17 10:25:21;;;;;;;7.13;3.80;;;;;;;8.53;100.00;98713.77;1815051;79;21019;-72
2021/03/17 10:27:55;;;;;;;7.87;3.73;;;;;;;8.61;100.00;98708.80;1815493;79;21597;-74
2021/03/17 10:30:32;;;;;;;9.30;5.17;;;;;;;8.62;100.00;98717.19;1806070;79;21121;-76
2021/03/17 10:33:01;;;;;;;7.53;3.90;;;;;;;8.65;100.00;98719.51;1735786;82;21080;-72
2021/03/17 10:35:33;;;;;;;9.93;4.20;;;;;;;8.67;100.00;98720.97;1740947;82;21724;-71
2021/03/17 10:38:01;;;;;;;6.97;3.80;;;;;;;8.69;100.00;98714.91;1740943;82;21030;-73
2021/03/17 10:40:30;;;;;;;5.33;2.80;;;;;;;8.68;100.00;98715.92;1741212;82;21074;-74
2021/03/17 10:43:15;;;;;;;4.13;3.20;;;;;;;8.63;100.00;98714.30;1769359;78;21020;-75
2021/03/17 10:45:53;;;;;;;10.57;4.63;;;;;;;8.64;100.00;98711.09;1806172;79;20974;-76
2021/03/17 10:48:25;;;;;;;8.30;3.43;;;;;;;8.67;100.00;98706.67;1758158;79;22232;-75
2021/03/17 10:50:55;;;;;;;7.67;4.00;;;;;;;8.72;100.00;98715.84;1704873;84;21005;-75
2021/03/17 10:53:28;;;;;;;8.77;4.33;;;;;;;8.75;100.00;98711.95;1753550;81;21022;-74
2021/03/17 10:55:58;;;;;;;8.07;3.70;;;;;;;8.68;100.00;98710.53;1732794;82;21038;-75
2021/03/17 10:58:29;;;;;;;4.73;3.33;;;;;;;8.61;100.00;98708.80;1732583;82;21112;-76
2021/03/17 11:01:00;;;;;;;9.77;4.23;;;;;;;8.59;100.00;98702.73;1667475;86;22155;-73
2021/03/17 11:03:31;;;;;;;3.87;2.73;;;;;;;8.59;100.00;98697.35;1696914;84;21684;-73
2021/03/17 11:06:22;;;;;;;5.63;3.93;;;;;;;8.55;100.00;98699.59;1697143;84;21021;-71
2021/03/17 11:09:06;;;;;;;9.30;5.10;;;;;;;8.58;100.00;98706.48;1697633;84;21607;-72
2021/03/17 11:11:53;;;;;;;8.90;4.30;;;;;;;8.63;100.00;98706.74;1697587;84;21568;-73
2021/03/17 11:14:38;;;;;;;5.23;3.47;;;;;;;8.70;100.00;98705.77;1845510;75;22243;-73
2021/03/17 11:17:08;;;;;;;4.50;3.30;;;;;;;8.71;100.00;98709.30;1815177;79;20973;-71
2021/03/17 11:19:38;;;;;;;5.73;3.83;;;;;;;8.69;100.00;98703.27;1811217;79;20984;-71
2021/03/17 11:22:06;;;;;;;9.47;4.70;;;;;;;8.61;100.00;98702.89;1787535;79;21054;-70
2021/03/17 11:24:34;;;;;;;6.67;3.63;;;;;;;8.60;100.00;98699.86;1765584;79;21501;-72
2021/03/17 11:27:02;;;;;;;9.27;4.53;;;;;;;8.63;100.00;98696.80;1795878;79;21023;-73
2021/03/17 11:29:31;;;;;;;7.67;4.20;;;;;;;8.71;100.00;98697.17;1723330;81;21032;-72
2021/03/17 11:32:09;;;;;;;6.97;3.90;;;;;;;8.76;100.00;98690.69;1761788;81;21257;-72
2021/03/17 11:34:46;;;;;;;8.53;5.07;;;;;;;8.89;100.00;98688.66;1867393;75;20874;-77
2021/03/17 11:37:14;;;;;;;9.07;5.23;;;;;;;8.98;100.00;98686.14;1836326;77;20965;-72
2021/03/17 11:39:42;;;;;;;11.00;5.33;;;;;;;9.11;100.00;98694.33;1831966;77;22297;-74
2021/03/17 11:42:10;;;;;;;9.90;5.07;;;;;;;9.16;100.00;98682.97;1835502;77;21032;-75
2021/03/17 11:44:40;;;;;;;12.33;5.40;;;;;;;9.18;100.00;98684.95;1827659;77;20984;-72
2021/03/17 11:47:08;;;;;;;10.20;4.60;;;;;;;9.18;100.00;98679.56;1848619;77;21041;-75
2021/03/17 11:49:37;;;;;;;8.63;4.40;;;;;;;9.18;100.00;98677.39;1812992;77;21003;-72
2021/03/17 11:52:06;;;;;;;12.63;5.43;;;;;;;9.19;100.00;98681.24;1832397;77;22242;-71
2021/03/17 11:54:34;;;;;;;10.53;4.73;;;;;;;9.26;100.00;98675.39;1796547;78;21068;-73
2021/03/17 11:57:02;;;;;;;11.77;5.10;;;;;;;9.28;100.00;98677.36;1790630;78;20950;-71
2021/03/17 11:59:30;;;;;;;10.70;4.70;;;;;;;9.29;100.00;98672.80;1780416;80;21622;-73
2021/03/17 12:02:00;;;;;;;10.60;4.70;;;;;;;9.29;100.00;98683.06;1762960;81;21092;-73
2021/03/17 12:04:28;;;;;;;8.70;4.43;;;;;;;9.24;100.00;98679.29;1764798;80;21657;-71